Time;durP1;ratioP1;P1;durP2;ratioP2;P2;SDS_P1;SDS_P2;PMS_P1;PMS_P2;Temp;Humidity;BMP_temperature;BMP_pressure;BME280_temperature;BME280_humidity;BME280_pressure;Samples;Min_cycle;Max_cycle;Signal;HPM_P1;HPM_P2
2023/04/16 00:01:33;;;;;;;0.70;0.60;;;;;;;;;;5083265;28;20427;-76
2023/04/16 00:04:00;;;;;;;0.70;0.60;;;;;;;;;;5081455;28;20797;-79
2023/04/16 00:06:28;;;;;;;0.70;0.70;;;;;;;;;;5080857;28;20462;-79
2023/04/16 00:08:55;;;;;;;0.60;0.60;;;;;;;;;;5073662;28;20438;-77
2023/04/16 00:11:21;;;;;;;0.70;0.70;;;;;;;;;;5085031;28;20465;-78
2023/04/16 00:13:48;;;;;;;0.67;0.60;;;;;;;;;;5083448;28;20443;-78
2023/04/16 00:16:15;;;;;;;0.60;0.60;;;;;;;;;;5082736;28;20434;-78
2023/04/16 00:18:41;;;;;;;0.60;0.60;;;;;;;;;;5083104;28;20526;-79
2023/04/16 00:21:08;;;;;;;0.60;0.60;;;;;;;;;;5069149;28;20500;-79
2023/04/16 00:23:36;;;;;;;0.70;0.63;;;;;;;;;;5081956;28;20438;-77
2023/04/16 00:26:03;;;;;;;0.70;0.60;;;;;;;;;;5078943;28;20435;-78
2023/04/16 00:28:30;;;;;;;0.60;0.60;;;;;;;;;;5077958;28;20498;-78
2023/04/16 00:30:57;;;;;;;0.60;0.60;;;;;;;;;;5084683;28;20492;-78
2023/04/16 00:33:24;;;;;;;0.97;0.90;;;;;;;;;;5079599;28;20965;-77
2023/04/16 00:35:51;;;;;;;1.20;1.10;;;;;;;;;;5081157;28;20499;-78
2023/04/16 00:38:18;;;;;;;0.60;0.60;;;;;;;;;;5087281;28;20825;-78
2023/04/16 00:40:46;;;;;;;0.63;0.60;;;;;;;;;;5082593;28;20483;-77
2023/04/16 00:43:18;;;;;;;0.60;0.60;;;;;;;;;;5080211;28;20449;-77
2023/04/16 00:45:45;;;;;;;0.60;0.60;;;;;;;;;;5078776;28;20442;-79
2023/04/16 00:48:12;;;;;;;1.23;1.13;;;;;;;;;;5080135;28;20813;-79
2023/04/16 00:50:38;;;;;;;0.80;0.73;;;;;;;;;;5076996;28;20463;-79
2023/04/16 00:53:05;;;;;;;0.70;0.60;;;;;;;;;;5079666;28;21050;-77
2023/04/16 00:55:31;;;;;;;0.60;0.60;;;;;;;;;;5082261;28;20450;-78
2023/04/16 00:58:00;;;;;;;0.60;0.50;;;;;;;;;;5081905;28;20430;-79
2023/04/16 01:00:26;;;;;;;0.63;0.63;;;;;;;;;;5080337;28;20768;-79
2023/04/16 01:02:53;;;;;;;0.70;0.60;;;;;;;;;;5087912;28;20445;-80
2023/04/16 01:05:20;;;;;;;0.60;0.60;;;;;;;;;;5088755;28;20463;-79
2023/04/16 01:07:46;;;;;;;0.60;0.60;;;;;;;;;;5081274;28;20486;-78
2023/04/16 01:10:13;;;;;;;0.60;0.60;;;;;;;;;;5082753;28;21040;-77
2023/04/16 01:12:39;;;;;;;0.70;0.70;;;;;;;;;;5082663;28;20493;-79
2023/04/16 01:15:08;;;;;;;0.60;0.60;;;;;;;;;;5069048;28;20991;-79
2023/04/16 01:17:34;;;;;;;0.60;0.50;;;;;;;;;;5085688;28;20436;-79
2023/04/16 01:20:01;;;;;;;0.63;0.63;;;;;;;;;;5085424;28;20789;-78
2023/04/16 01:22:30;;;;;;;0.70;0.70;;;;;;;;;;5080934;28;20569;-79
2023/04/16 01:24:57;;;;;;;0.60;0.60;;;;;;;;;;5083145;28;20433;-78
2023/04/16 01:27:24;;;;;;;0.70;0.70;;;;;;;;;;5086910;28;20437;-78
2023/04/16 01:29:50;;;;;;;0.70;0.70;;;;;;;;;;5080972;28;20931;-80
2023/04/16 01:32:23;;;;;;;0.60;0.60;;;;;;;;;;5083567;28;20502;-79
2023/04/16 01:34:50;;;;;;;0.60;0.60;;;;;;;;;;5083636;28;20437;-79
2023/04/16 01:37:17;;;;;;;0.80;0.80;;;;;;;;;;5084396;28;20470;-77
2023/04/16 01:39:46;;;;;;;0.60;0.60;;;;;;;;;;5075322;28;20471;-79
2023/04/16 01:42:12;;;;;;;0.60;0.60;;;;;;;;;;5072570;28;20538;-79
2023/04/16 01:44:39;;;;;;;0.70;0.60;;;;;;;;;;5080518;28;20452;-78
2023/04/16 01:47:05;;;;;;;0.70;0.60;;;;;;;;;;5080253;28;20462;-79
2023/04/16 01:49:32;;;;;;;0.60;0.60;;;;;;;;;;5079659;28;20438;-79
2023/04/16 01:51:59;;;;;;;0.70;0.63;;;;;;;;;;5080428;28;20480;-78
2023/04/16 01:54:26;;;;;;;0.70;0.70;;;;;;;;;;5067990;28;20449;-78
2023/04/16 01:56:54;;;;;;;0.70;0.60;;;;;;;;;;5070549;28;20529;-77
2023/04/16 01:59:21;;;;;;;0.60;0.60;;;;;;;;;;5096276;28;20950;-77
2023/04/16 02:01:47;;;;;;;0.60;0.60;;;;;;;;;;5060533;28;20450;-79
2023/04/16 02:04:15;;;;;;;1.57;1.47;;;;;;;;;;5079283;28;20942;-79
2023/04/16 02:06:42;;;;;;;0.60;0.60;;;;;;;;;;5089566;28;20950;-78
2023/04/16 02:09:08;;;;;;;0.70;0.63;;;;;;;;;;5083146;28;20977;-79
2023/04/16 02:11:36;;;;;;;0.70;0.60;;;;;;;;;;5082044;28;20462;-78
2023/04/16 02:14:04;;;;;;;0.60;0.60;;;;;;;;;;5065529;28;20813;-79
2023/04/16 02:16:30;;;;;;;1.30;1.20;;;;;;;;;;5081341;28;20470;-76
2023/04/16 02:19:04;;;;;;;0.60;0.60;;;;;;;;;;5068847;28;20446;-78
2023/04/16 02:21:34;;;;;;;0.60;0.60;;;;;;;;;;5065083;28;20471;-78
2023/04/16 02:24:01;;;;;;;0.60;0.60;;;;;;;;;;5070705;28;20628;-78
2023/04/16 02:26:29;;;;;;;1.03;0.73;;;;;;;;;;5075191;28;20455;-79
2023/04/16 02:29:03;;;;;;;0.60;0.50;;;;;;;;;;5076210;28;20530;-79
2023/04/16 02:31:37;;;;;;;0.70;0.70;;;;;;;;;;5085105;28;20840;-79
2023/04/16 02:34:05;;;;;;;0.70;0.70;;;;;;;;;;5068411;28;20458;-79
2023/04/16 02:36:31;;;;;;;0.60;0.60;;;;;;;;;;5084144;28;20466;-81
2023/04/16 02:38:58;;;;;;;0.80;0.80;;;;;;;;;;5085563;28;20954;-78
2023/04/16 02:41:25;;;;;;;0.70;0.67;;;;;;;;;;5068329;28;20484;-78
2023/04/16 02:43:51;;;;;;;0.60;0.60;;;;;;;;;;5086508;28;20813;-78
2023/04/16 02:46:19;;;;;;;0.60;0.60;;;;;;;;;;5091909;28;20458;-79
2023/04/16 02:48:46;;;;;;;0.70;0.60;;;;;;;;;;5087050;28;20438;-78
2023/04/16 02:51:12;;;;;;;1.67;1.27;;;;;;;;;;5086163;28;20463;-78
2023/04/16 02:53:39;;;;;;;0.60;0.60;;;;;;;;;;5084680;28;21033;-78
2023/04/16 02:56:06;;;;;;;0.60;0.60;;;;;;;;;;5081727;28;20807;-78
2023/04/16 02:58:32;;;;;;;0.60;0.60;;;;;;;;;;5079786;28;20779;-78
2023/04/16 03:00:59;;;;;;;0.60;0.60;;;;;;;;;;5082409;28;20797;-78
2023/04/16 03:03:27;;;;;;;0.60;0.53;;;;;;;;;;5091641;28;20438;-80
2023/04/16 03:05:54;;;;;;;0.70;0.70;;;;;;;;;;5085256;28;20492;-77
2023/04/16 03:08:21;;;;;;;1.83;1.33;;;;;;;;;;5092069;28;20810;-79
2023/04/16 03:10:47;;;;;;;0.70;0.70;;;;;;;;;;5084887;28;20447;-79
2023/04/16 03:13:14;;;;;;;0.70;0.60;;;;;;;;;;5086373;28;20962;-80
2023/04/16 03:15:46;;;;;;;0.60;0.60;;;;;;;;;;5091553;28;20443;-78
2023/04/16 03:18:13;;;;;;;0.90;0.90;;;;;;;;;;5091357;28;20442;-79
2023/04/16 03:20:41;;;;;;;0.70;0.60;;;;;;;;;;5085023;28;20453;-79
2023/04/16 03:23:08;;;;;;;0.60;0.60;;;;;;;;;;5081783;28;20481;-80
2023/04/16 03:25:35;;;;;;;0.60;0.60;;;;;;;;;;5084251;28;20524;-79
2023/04/16 03:28:03;;;;;;;0.70;0.60;;;;;;;;;;5090859;28;20475;-79
2023/04/16 03:30:31;;;;;;;0.60;0.60;;;;;;;;;;5080914;28;20458;-78
2023/04/16 03:32:58;;;;;;;3.70;2.33;;;;;;;;;;5086171;28;20476;-79
2023/04/16 03:35:25;;;;;;;0.90;0.90;;;;;;;;;;5066678;28;20564;-78
2023/04/16 03:37:53;;;;;;;0.70;0.70;;;;;;;;;;5082714;28;20804;-77
2023/04/16 03:40:19;;;;;;;0.90;0.90;;;;;;;;;;5075024;28;20934;-78
2023/04/16 03:42:46;;;;;;;3.07;1.53;;;;;;;;;;5082746;28;20434;-79
2023/04/16 03:45:16;;;;;;;3.07;1.30;;;;;;;;;;5091748;28;20450;-78
2023/04/16 03:47:43;;;;;;;0.70;0.67;;;;;;;;;;5082945;28;20784;-78
2023/04/16 03:50:10;;;;;;;0.63;0.63;;;;;;;;;;5085006;28;20449;-79
2023/04/16 03:52:38;;;;;;;0.60;0.60;;;;;;;;;;5083055;28;20486;-79
2023/04/16 03:55:06;;;;;;;0.70;0.60;;;;;;;;;;5082904;28;20446;-78
2023/04/16 03:57:33;;;;;;;0.67;0.67;;;;;;;;;;5089760;28;20444;-79
2023/04/16 04:00:06;;;;;;;0.60;0.60;;;;;;;;;;5069958;28;20443;-80
2023/04/16 04:02:55;;;;;;;0.63;0.60;;;;;;;;;;5066969;28;20448;-79
2023/04/16 04:05:22;;;;;;;0.60;0.60;;;;;;;;;;5088097;28;20973;-79
2023/04/16 04:07:50;;;;;;;0.60;0.60;;;;;;;;;;5068686;28;20507;-78
2023/04/16 04:10:18;;;;;;;0.60;0.60;;;;;;;;;;5066276;28;20443;-77
2023/04/16 04:12:45;;;;;;;0.60;0.60;;;;;;;;;;5072101;28;20531;-79
2023/04/16 04:15:12;;;;;;;0.70;0.70;;;;;;;;;;5082419;28;20501;-79
2023/04/16 04:17:40;;;;;;;1.53;1.43;;;;;;;;;;5083108;28;20439;-79
2023/04/16 04:20:09;;;;;;;0.60;0.60;;;;;;;;;;5087665;28;20910;-80
2023/04/16 04:22:36;;;;;;;0.73;0.70;;;;;;;;;;5084195;28;20459;-80
2023/04/16 04:25:03;;;;;;;0.77;0.77;;;;;;;;;;5063321;28;20499;-80
2023/04/16 04:27:32;;;;;;;0.70;0.63;;;;;;;;;;5069032;28;20466;-80
2023/04/16 04:29:59;;;;;;;1.43;1.33;;;;;;;;;;5072790;28;20458;-80
2023/04/16 04:32:26;;;;;;;0.70;0.70;;;;;;;;;;5081244;28;20473;-77
2023/04/16 04:34:53;;;;;;;0.70;0.60;;;;;;;;;;5068303;28;20442;-79
2023/04/16 04:37:20;;;;;;;0.70;0.70;;;;;;;;;;5086703;28;20468;-80
2023/04/16 04:39:47;;;;;;;0.60;0.60;;;;;;;;;;5084870;28;20518;-80
2023/04/16 04:42:14;;;;;;;0.70;0.70;;;;;;;;;;5083609;28;20537;-80
2023/04/16 04:44:42;;;;;;;0.70;0.63;;;;;;;;;;5082908;28;20953;-80
2023/04/16 04:47:09;;;;;;;2.13;2.03;;;;;;;;;;5065042;28;20972;-79
2023/04/16 04:49:36;;;;;;;0.60;0.60;;;;;;;;;;5068339;28;20474;-78
2023/04/16 04:52:03;;;;;;;1.73;1.63;;;;;;;;;;5071601;28;20868;-79
2023/04/16 04:54:31;;;;;;;0.60;0.50;;;;;;;;;;5097387;28;20447;-79
2023/04/16 04:56:57;;;;;;;0.60;0.60;;;;;;;;;;5063733;28;20800;-78
2023/04/16 04:59:24;;;;;;;0.60;0.60;;;;;;;;;;5072199;28;20447;-79
2023/04/16 05:01:52;;;;;;;0.67;0.60;;;;;;;;;;5078400;28;20446;-79
2023/04/16 05:04:19;;;;;;;0.60;0.50;;;;;;;;;;5076242;28;20434;-78
2023/04/16 05:06:46;;;;;;;0.60;0.60;;;;;;;;;;5080802;28;20471;-79
2023/04/16 05:09:12;;;;;;;0.60;0.50;;;;;;;;;;5081851;28;20466;-78
2023/04/16 05:11:40;;;;;;;0.60;0.60;;;;;;;;;;5085263;28;20476;-79
2023/04/16 05:14:06;;;;;;;0.70;0.60;;;;;;;;;;5083287;28;20435;-79
2023/04/16 05:16:35;;;;;;;0.60;0.60;;;;;;;;;;5086261;28;20438;-78
2023/04/16 05:19:03;;;;;;;2.30;2.10;;;;;;;;;;5079175;28;20464;-78
2023/04/16 05:21:30;;;;;;;0.70;0.70;;;;;;;;;;5070059;28;20477;-77
2023/04/16 05:23:57;;;;;;;0.90;0.77;;;;;;;;;;5087356;28;20460;-79
2023/04/16 05:26:24;;;;;;;0.60;0.60;;;;;;;;;;5086923;28;20444;-78
2023/04/16 05:28:50;;;;;;;1.20;1.13;;;;;;;;;;5086164;28;20450;-79
2023/04/16 05:31:17;;;;;;;0.63;0.63;;;;;;;;;;5080333;28;20465;-78
2023/04/16 05:33:44;;;;;;;0.60;0.60;;;;;;;;;;5089249;28;20537;-80
2023/04/16 05:36:12;;;;;;;1.43;1.33;;;;;;;;;;5070884;28;20488;-77
2023/04/16 05:38:38;;;;;;;0.70;0.60;;;;;;;;;;5071178;28;20458;-78
2023/04/16 05:41:05;;;;;;;0.80;0.80;;;;;;;;;;5075471;28;20435;-79
2023/04/16 05:43:32;;;;;;;0.97;0.97;;;;;;;;;;5083060;28;20435;-79
2023/04/16 05:45:58;;;;;;;5.70;2.10;;;;;;;;;;5078529;28;20957;-78
2023/04/16 05:48:25;;;;;;;0.67;0.60;;;;;;;;;;5067114;28;20499;-78
2023/04/16 05:50:52;;;;;;;0.90;0.90;;;;;;;;;;5082978;28;20986;-79
2023/04/16 05:53:20;;;;;;;0.60;0.60;;;;;;;;;;5081940;28;20474;-77
2023/04/16 05:55:47;;;;;;;0.83;0.83;;;;;;;;;;5080406;28;20442;-78
2023/04/16 05:58:13;;;;;;;0.70;0.60;;;;;;;;;;5079543;28;20443;-78
2023/04/16 06:00:40;;;;;;;10.40;2.60;;;;;;;;;;5081389;28;20439;-77
2023/04/16 06:03:07;;;;;;;0.60;0.60;;;;;;;;;;5079417;28;20516;-78
2023/04/16 06:05:34;;;;;;;0.60;0.60;;;;;;;;;;5079011;28;20450;-78
2023/04/16 06:08:01;;;;;;;1.77;1.07;;;;;;;;;;5080150;28;20504;-78
2023/04/16 06:10:29;;;;;;;0.60;0.60;;;;;;;;;;5075885;28;20450;-79
2023/04/16 06:12:55;;;;;;;0.60;0.60;;;;;;;;;;5086246;28;20465;-78
2023/04/16 06:15:22;;;;;;;0.70;0.60;;;;;;;;;;5080282;28;20461;-79
2023/04/16 06:17:49;;;;;;;0.60;0.60;;;;;;;;;;5081213;28;20451;-79
2023/04/16 06:20:16;;;;;;;0.60;0.60;;;;;;;;;;5076420;28;20454;-78
2023/04/16 06:22:43;;;;;;;0.70;0.70;;;;;;;;;;5088404;28;20470;-77
2023/04/16 06:25:11;;;;;;;0.60;0.60;;;;;;;;;;5079763;28;20442;-78
2023/04/16 06:27:39;;;;;;;0.60;0.60;;;;;;;;;;5081422;28;20542;-76
2023/04/16 06:30:10;;;;;;;0.70;0.70;;;;;;;;;;5071678;28;20534;-79
2023/04/16 06:32:36;;;;;;;0.60;0.60;;;;;;;;;;5080493;28;20962;-78
2023/04/16 06:35:03;;;;;;;0.60;0.50;;;;;;;;;;5080092;28;20464;-78
2023/04/16 06:37:30;;;;;;;0.60;0.50;;;;;;;;;;5079524;28;20474;-78
2023/04/16 06:39:57;;;;;;;0.60;0.60;;;;;;;;;;5080382;28;20785;-78
2023/04/16 06:42:24;;;;;;;0.60;0.60;;;;;;;;;;5070856;28;21077;-78
2023/04/16 06:44:52;;;;;;;0.60;0.60;;;;;;;;;;5077674;28;20484;-79
2023/04/16 06:47:18;;;;;;;0.60;0.60;;;;;;;;;;5082474;28;20979;-79
2023/04/16 06:49:45;;;;;;;1.77;1.67;;;;;;;;;;5070471;28;20439;-80
2023/04/16 06:52:12;;;;;;;0.60;0.60;;;;;;;;;;5075182;28;20471;-76
2023/04/16 06:54:39;;;;;;;0.70;0.60;;;;;;;;;;5087259;28;20430;-79
2023/04/16 06:57:06;;;;;;;0.70;0.60;;;;;;;;;;5072590;28;20443;-78
2023/04/16 06:59:32;;;;;;;1.40;1.30;;;;;;;;;;5084377;28;20870;-79
2023/04/16 07:02:00;;;;;;;0.60;0.60;;;;;;;;;;5080066;28;20438;-79
2023/04/16 07:04:27;;;;;;;0.60;0.60;;;;;;;;;;5067036;28;20430;-78
2023/04/16 07:06:54;;;;;;;0.60;0.60;;;;;;;;;;5083613;28;20455;-79
2023/04/16 07:09:20;;;;;;;1.47;1.10;;;;;;;;;;5081936;28;20784;-79
2023/04/16 07:11:47;;;;;;;0.70;0.70;;;;;;;;;;5080930;28;20435;-78
2023/04/16 07:14:14;;;;;;;0.60;0.60;;;;;;;;;;5083407;28;20529;-78
2023/04/16 07:16:40;;;;;;;0.60;0.60;;;;;;;;;;5084864;28;20442;-79
2023/04/16 07:19:09;;;;;;;0.60;0.60;;;;;;;;;;5085766;28;20584;-79
2023/04/16 07:21:36;;;;;;;0.60;0.60;;;;;;;;;;5072365;28;20490;-78
2023/04/16 07:24:03;;;;;;;0.60;0.60;;;;;;;;;;5084000;28;20465;-77
2023/04/16 07:26:29;;;;;;;0.70;0.70;;;;;;;;;;5089621;28;20791;-77
2023/04/16 07:28:56;;;;;;;0.60;0.60;;;;;;;;;;5090932;28;20439;-78
2023/04/16 07:31:23;;;;;;;2.20;2.00;;;;;;;;;;5099830;28;20431;-78
2023/04/16 07:33:50;;;;;;;1.53;1.43;;;;;;;;;;5082200;28;20590;-78
2023/04/16 07:36:18;;;;;;;1.67;0.83;;;;;;;;;;5082205;28;20915;-78
2023/04/16 07:38:44;;;;;;;1.50;1.40;;;;;;;;;;5080315;28;20431;-77
2023/04/16 07:41:11;;;;;;;0.70;0.60;;;;;;;;;;5083598;28;20497;-78
2023/04/16 07:43:38;;;;;;;0.60;0.60;;;;;;;;;;5081563;28;20460;-78
2023/04/16 07:46:04;;;;;;;0.60;0.60;;;;;;;;;;5078786;28;20453;-76
2023/04/16 07:48:31;;;;;;;0.60;0.50;;;;;;;;;;5079660;28;21043;-78
2023/04/16 07:50:58;;;;;;;3.07;2.17;;;;;;;;;;5065513;28;20478;-78
2023/04/16 07:53:26;;;;;;;1.27;1.17;;;;;;;;;;5080826;28;20829;-79
2023/04/16 07:55:58;;;;;;;0.60;0.60;;;;;;;;;;5082453;28;20798;-78
2023/04/16 07:58:25;;;;;;;0.60;0.60;;;;;;;;;;5081585;28;20442;-77
2023/04/16 08:00:51;;;;;;;0.60;0.60;;;;;;;;;;5081184;28;20435;-79
2023/04/16 08:03:18;;;;;;;0.70;0.70;;;;;;;;;;5081113;28;20427;-80
2023/04/16 08:05:45;;;;;;;1.37;1.27;;;;;;;;;;5081777;28;20440;-78
2023/04/16 08:08:12;;;;;;;0.80;0.80;;;;;;;;;;5084988;28;20456;-78
2023/04/16 08:10:40;;;;;;;0.70;0.60;;;;;;;;;;5079698;28;20927;-78
2023/04/16 08:13:07;;;;;;;0.97;0.97;;;;;;;;;;5079217;28;20534;-78
2023/04/16 08:15:34;;;;;;;0.70;0.70;;;;;;;;;;5082766;28;20445;-77
2023/04/16 08:18:00;;;;;;;1.73;1.20;;;;;;;;;;5081738;28;20449;-79
2023/04/16 08:20:27;;;;;;;0.70;0.60;;;;;;;;;;5085509;28;20557;-78
2023/04/16 08:22:54;;;;;;;3.10;1.63;;;;;;;;;;5084624;28;20446;-77
2023/04/16 08:25:23;;;;;;;1.00;0.90;;;;;;;;;;5079152;28;20930;-78
2023/04/16 08:27:51;;;;;;;0.73;0.73;;;;;;;;;;5069551;28;20908;-77
2023/04/16 08:30:18;;;;;;;0.70;0.60;;;;;;;;;;5073585;28;20709;-79
2023/04/16 08:32:44;;;;;;;1.03;0.93;;;;;;;;;;5081348;28;20469;-78
2023/04/16 08:35:15;;;;;;;0.70;0.70;;;;;;;;;;5080851;28;20777;-77
2023/04/16 08:37:41;;;;;;;1.43;1.33;;;;;;;;;;5079001;28;20484;-77
2023/04/16 08:40:08;;;;;;;0.70;0.60;;;;;;;;;;5060485;28;20446;-75
2023/04/16 08:42:39;;;;;;;0.70;0.70;;;;;;;;;;5084770;28;20571;-77
2023/04/16 08:45:11;;;;;;;0.60;0.60;;;;;;;;;;5074186;28;20469;-77
2023/04/16 08:47:37;;;;;;;0.70;0.60;;;;;;;;;;5082742;28;20945;-77
2023/04/16 08:50:05;;;;;;;0.90;0.90;;;;;;;;;;5083360;28;20444;-75
2023/04/16 08:52:32;;;;;;;0.90;0.90;;;;;;;;;;5082230;28;20503;-77
2023/04/16 08:55:05;;;;;;;7.03;2.40;;;;;;;;;;5073817;28;20508;-78
2023/04/16 08:57:37;;;;;;;0.70;0.70;;;;;;;;;;5072883;28;20436;-77
2023/04/16 09:00:05;;;;;;;1.70;1.27;;;;;;;;;;5083131;28;20426;-76
2023/04/16 09:02:34;;;;;;;0.80;0.80;;;;;;;;;;5079698;28;20812;-75
2023/04/16 09:05:02;;;;;;;0.70;0.60;;;;;;;;;;5077897;28;20560;-77
2023/04/16 09:07:29;;;;;;;0.70;0.70;;;;;;;;;;5078503;28;20954;-78
2023/04/16 09:09:57;;;;;;;1.30;1.20;;;;;;;;;;5079679;28;20435;-77
2023/04/16 09:12:24;;;;;;;0.70;0.70;;;;;;;;;;5088781;28;20487;-76
2023/04/16 09:14:51;;;;;;;0.83;0.83;;;;;;;;;;5078967;28;20484;-76
2023/04/16 09:17:18;;;;;;;0.90;0.90;;;;;;;;;;5083103;28;20441;-76
2023/04/16 09:19:47;;;;;;;1.63;1.50;;;;;;;;;;5077970;28;20478;-76
2023/04/16 09:22:14;;;;;;;0.67;0.60;;;;;;;;;;5079693;28;20556;-77
2023/04/16 09:24:40;;;;;;;0.80;0.80;;;;;;;;;;5086037;28;20436;-77
2023/04/16 09:27:07;;;;;;;0.70;0.60;;;;;;;;;;5089098;28;20587;-77
2023/04/16 09:29:37;;;;;;;2.50;1.83;;;;;;;;;;5081742;28;21046;-76
2023/04/16 09:32:04;;;;;;;0.70;0.70;;;;;;;;;;5059190;28;20456;-77
2023/04/16 09:34:32;;;;;;;0.70;0.70;;;;;;;;;;5079058;28;20978;-77
2023/04/16 09:37:15;;;;;;;1.00;1.00;;;;;;;;;;5071545;28;20526;-77
2023/04/16 09:39:43;;;;;;;0.80;0.80;;;;;;;;;;5077232;28;20442;-75
2023/04/16 09:42:09;;;;;;;0.77;0.77;;;;;;;;;;5066578;28;20440;-77
2023/04/16 09:44:37;;;;;;;1.17;1.07;;;;;;;;;;5079018;28;20477;-77
2023/04/16 09:47:05;;;;;;;0.70;0.70;;;;;;;;;;5080620;28;20438;-76
2023/04/16 09:49:32;;;;;;;1.40;1.30;;;;;;;;;;5079976;28;20439;-77
2023/04/16 09:51:59;;;;;;;0.70;0.67;;;;;;;;;;5078286;28;20449;-76
2023/04/16 09:54:27;;;;;;;0.80;0.80;;;;;;;;;;5082247;28;20836;-77
2023/04/16 09:56:55;;;;;;;0.70;0.70;;;;;;;;;;5080906;28;20770;-76
2023/04/16 09:59:22;;;;;;;0.70;0.60;;;;;;;;;;5078035;28;20837;-77
2023/04/16 10:01:51;;;;;;;1.40;1.30;;;;;;;;;;5070882;28;20473;-75
2023/04/16 10:04:45;;;;;;;0.80;0.80;;;;;;;;;;5081663;28;20806;-76
2023/04/16 10:07:12;;;;;;;0.70;0.60;;;;;;;;;;5086197;28;20553;-77
2023/04/16 10:09:40;;;;;;;1.77;1.27;;;;;;;;;;5066093;28;20443;-76
2023/04/16 10:12:07;;;;;;;0.70;0.60;;;;;;;;;;5081245;28;21004;-77
2023/04/16 10:14:34;;;;;;;0.70;0.63;;;;;;;;;;5081789;28;20480;-77
2023/04/16 10:17:02;;;;;;;0.70;0.60;;;;;;;;;;5065274;28;20452;-76
2023/04/16 10:19:31;;;;;;;0.70;0.70;;;;;;;;;;5080631;28;20444;-77
2023/04/16 10:21:58;;;;;;;0.70;0.63;;;;;;;;;;5079311;28;20522;-76
2023/04/16 10:24:25;;;;;;;0.80;0.70;;;;;;;;;;5078792;28;20423;-77
2023/04/16 10:26:53;;;;;;;0.73;0.70;;;;;;;;;;5087098;28;20458;-76
2023/04/16 10:29:20;;;;;;;0.70;0.60;;;;;;;;;;5085085;28;20523;-76
2023/04/16 10:31:47;;;;;;;0.90;0.90;;;;;;;;;;5081853;28;20508;-76
2023/04/16 10:34:15;;;;;;;1.53;1.33;;;;;;;;;;5082516;28;20464;-76
2023/04/16 10:36:41;;;;;;;1.63;1.47;;;;;;;;;;5089242;28;20474;-77
2023/04/16 10:39:10;;;;;;;0.70;0.70;;;;;;;;;;5082748;28;20928;-76
2023/04/16 10:41:38;;;;;;;0.70;0.70;;;;;;;;;;5089625;28;20430;-77
2023/04/16 10:44:11;;;;;;;0.80;0.80;;;;;;;;;;5086727;28;20444;-76
2023/04/16 10:46:38;;;;;;;0.70;0.70;;;;;;;;;;5082003;28;20434;-76
2023/04/16 10:49:12;;;;;;;0.80;0.70;;;;;;;;;;5085270;28;20499;-77
2023/04/16 10:51:38;;;;;;;0.80;0.80;;;;;;;;;;5084943;28;20488;-76
2023/04/16 10:54:18;;;;;;;1.37;1.27;;;;;;;;;;5084280;28;20511;-77
2023/04/16 10:56:46;;;;;;;0.90;0.90;;;;;;;;;;5082823;28;20570;-74
2023/04/16 10:59:17;;;;;;;0.70;0.70;;;;;;;;;;5076387;28;20448;-76
2023/04/16 11:01:44;;;;;;;0.90;0.90;;;;;;;;;;5084520;28;20432;-75
2023/04/16 11:04:28;;;;;;;2.03;1.93;;;;;;;;;;5077574;28;20432;-76
2023/04/16 11:07:01;;;;;;;1.97;1.77;;;;;;;;;;5089118;28;20951;-76
2023/04/16 11:09:46;;;;;;;2.37;1.17;;;;;;;;;;5081697;28;20452;-77
2023/04/16 11:12:15;;;;;;;0.70;0.70;;;;;;;;;;5074534;28;20441;-76
2023/04/16 11:14:45;;;;;;;1.37;1.30;;;;;;;;;;5081545;28;20466;-77
2023/04/16 11:17:12;;;;;;;0.80;0.80;;;;;;;;;;5065791;28;20770;-75
2023/04/16 11:19:41;;;;;;;6.97;1.23;;;;;;;;;;5085068;28;20439;-76
2023/04/16 11:22:07;;;;;;;0.70;0.70;;;;;;;;;;5085289;28;20451;-76
2023/04/16 11:24:34;;;;;;;1.17;1.07;;;;;;;;;;5083933;28;20440;-77
2023/04/16 11:27:02;;;;;;;1.43;1.33;;;;;;;;;;5083088;28;20469;-76
2023/04/16 11:29:28;;;;;;;0.90;0.90;;;;;;;;;;5085639;28;20430;-77
2023/04/16 11:31:56;;;;;;;0.80;0.80;;;;;;;;;;5078465;28;20565;-76
2023/04/16 11:34:24;;;;;;;0.80;0.80;;;;;;;;;;5083535;28;20480;-75
2023/04/16 11:36:51;;;;;;;1.10;1.10;;;;;;;;;;5067981;28;20486;-77
2023/04/16 11:39:17;;;;;;;0.80;0.70;;;;;;;;;;5079409;28;20495;-75
2023/04/16 11:41:44;;;;;;;0.80;0.80;;;;;;;;;;5081529;28;20435;-76
2023/04/16 11:44:18;;;;;;;1.33;1.23;;;;;;;;;;5082516;28;20926;-76
2023/04/16 11:46:44;;;;;;;0.90;0.90;;;;;;;;;;5078295;28;20449;-76
2023/04/16 11:49:12;;;;;;;0.80;0.73;;;;;;;;;;5077159;28;20433;-74
2023/04/16 11:51:40;;;;;;;1.20;1.10;;;;;;;;;;5084648;28;20488;-75
2023/04/16 11:54:07;;;;;;;1.33;1.23;;;;;;;;;;5081961;28;20473;-74
2023/04/16 11:56:37;;;;;;;0.97;0.97;;;;;;;;;;5084145;28;20495;-76
2023/04/16 11:59:10;;;;;;;1.37;1.27;;;;;;;;;;5082969;28;20514;-76
2023/04/16 12:01:38;;;;;;;1.50;1.37;;;;;;;;;;5079028;28;20456;-76
2023/04/16 12:04:05;;;;;;;2.17;2.03;;;;;;;;;;5082824;28;20478;-74
2023/04/16 12:06:34;;;;;;;2.73;1.10;;;;;;;;;;5077491;28;20465;-74
2023/04/16 12:09:15;;;;;;;2.10;1.33;;;;;;;;;;5079844;28;20427;-77
2023/04/16 12:11:42;;;;;;;1.67;1.57;;;;;;;;;;5080766;28;20449;-76
2023/04/16 12:14:09;;;;;;;0.70;0.70;;;;;;;;;;5080291;28;20469;-76
2023/04/16 12:16:36;;;;;;;2.60;1.57;;;;;;;;;;5073179;28;20945;-77
2023/04/16 12:19:04;;;;;;;0.80;0.80;;;;;;;;;;5078733;28;20427;-76
2023/04/16 12:21:42;;;;;;;0.80;0.80;;;;;;;;;;5081899;28;20532;-77
2023/04/16 12:24:09;;;;;;;1.90;1.80;;;;;;;;;;5077326;28;20442;-76
2023/04/16 12:26:37;;;;;;;1.20;1.10;;;;;;;;;;5086244;28;20803;-77
2023/04/16 12:29:13;;;;;;;0.77;0.77;;;;;;;;;;5084101;28;20442;-75
2023/04/16 12:31:41;;;;;;;1.13;1.03;;;;;;;;;;5088492;28;20440;-76
2023/04/16 12:34:09;;;;;;;0.70;0.60;;;;;;;;;;5063243;28;20499;-75
2023/04/16 12:36:35;;;;;;;0.80;0.77;;;;;;;;;;5072866;28;20452;-76
2023/04/16 12:39:04;;;;;;;0.80;0.80;;;;;;;;;;5079395;28;20446;-76
2023/04/16 12:41:30;;;;;;;1.77;1.43;;;;;;;;;;5086511;28;20440;-76
2023/04/16 12:44:05;;;;;;;0.90;0.90;;;;;;;;;;5083216;28;20438;-76
2023/04/16 12:46:32;;;;;;;0.70;0.70;;;;;;;;;;5087211;28;20426;-76
2023/04/16 12:48:58;;;;;;;0.80;0.80;;;;;;;;;;5089513;28;20455;-76
2023/04/16 12:51:25;;;;;;;0.80;0.70;;;;;;;;;;5081110;28;20444;-76
2023/04/16 12:53:52;;;;;;;0.70;0.70;;;;;;;;;;5082831;28;20451;-76
2023/04/16 12:56:20;;;;;;;0.70;0.60;;;;;;;;;;5082353;28;20448;-76
2023/04/16 12:58:50;;;;;;;1.77;1.67;;;;;;;;;;5078107;28;20466;-76
2023/04/16 13:01:17;;;;;;;0.80;0.80;;;;;;;;;;5080700;28;20436;-76
2023/04/16 13:03:44;;;;;;;0.80;0.77;;;;;;;;;;5078157;28;20488;-76
2023/04/16 13:06:12;;;;;;;0.80;0.80;;;;;;;;;;5072240;28;20437;-76
2023/04/16 13:08:39;;;;;;;0.80;0.70;;;;;;;;;;5077709;28;20450;-75
2023/04/16 13:11:06;;;;;;;0.83;0.83;;;;;;;;;;5082907;28;20433;-76
2023/04/16 13:13:35;;;;;;;0.70;0.70;;;;;;;;;;5082412;28;20936;-76
2023/04/16 13:16:07;;;;;;;0.70;0.70;;;;;;;;;;5077688;28;20469;-76
2023/04/16 13:18:35;;;;;;;0.70;0.70;;;;;;;;;;5079683;28;20484;-75
2023/04/16 13:21:02;;;;;;;3.63;3.33;;;;;;;;;;5084231;28;20463;-75
2023/04/16 13:23:28;;;;;;;0.70;0.70;;;;;;;;;;5081709;28;20464;-75
2023/04/16 13:25:55;;;;;;;0.80;0.70;;;;;;;;;;5079533;28;20453;-75
2023/04/16 13:28:21;;;;;;;2.20;1.93;;;;;;;;;;5081048;28;20540;-75
2023/04/16 13:30:50;;;;;;;0.83;0.83;;;;;;;;;;5077241;28;20897;-76
2023/04/16 13:33:17;;;;;;;0.70;0.70;;;;;;;;;;5080116;28;20442;-75
2023/04/16 13:35:43;;;;;;;0.70;0.70;;;;;;;;;;5084131;28;20467;-77
2023/04/16 13:38:11;;;;;;;0.70;0.67;;;;;;;;;;5087375;28;20469;-76
2023/04/16 13:40:37;;;;;;;0.70;0.70;;;;;;;;;;5084173;28;20438;-76
2023/04/16 13:43:04;;;;;;;0.70;0.70;;;;;;;;;;5082749;28;20476;-75
2023/04/16 13:45:33;;;;;;;0.70;0.70;;;;;;;;;;5071972;28;20454;-76
2023/04/16 13:48:01;;;;;;;1.53;1.43;;;;;;;;;;5081628;28;20965;-75
2023/04/16 13:50:28;;;;;;;0.70;0.70;;;;;;;;;;5083079;28;20443;-74
2023/04/16 13:52:55;;;;;;;0.70;0.70;;;;;;;;;;5076542;28;20465;-76
2023/04/16 13:55:21;;;;;;;0.70;0.70;;;;;;;;;;5079662;28;21080;-76
2023/04/16 13:57:49;;;;;;;0.80;0.70;;;;;;;;;;5077491;28;20528;-76
2023/04/16 14:00:16;;;;;;;0.70;0.70;;;;;;;;;;5081524;28;20441;-76
2023/04/16 14:02:44;;;;;;;0.70;0.70;;;;;;;;;;5084725;28;20474;-76
2023/04/16 14:05:13;;;;;;;0.70;0.70;;;;;;;;;;5075403;28;20434;-76
2023/04/16 14:07:39;;;;;;;0.80;0.80;;;;;;;;;;5075408;28;20532;-76
2023/04/16 14:10:07;;;;;;;0.80;0.70;;;;;;;;;;5069818;28;20463;-76
2023/04/16 14:12:33;;;;;;;0.70;0.60;;;;;;;;;;5079041;28;20465;-76
2023/04/16 14:15:03;;;;;;;0.80;0.70;;;;;;;;;;5079179;28;20524;-76
2023/04/16 14:17:29;;;;;;;1.17;1.07;;;;;;;;;;5080344;28;20509;-74
2023/04/16 14:19:56;;;;;;;0.70;0.70;;;;;;;;;;5079682;28;20453;-76
2023/04/16 14:22:24;;;;;;;0.70;0.70;;;;;;;;;;5078350;28;21043;-75
2023/04/16 14:24:50;;;;;;;0.80;0.80;;;;;;;;;;5079657;28;20481;-76
2023/04/16 14:27:17;;;;;;;0.90;0.90;;;;;;;;;;5077067;28;21023;-76
2023/04/16 14:29:45;;;;;;;0.73;0.73;;;;;;;;;;5081176;28;20452;-76
2023/04/16 14:32:12;;;;;;;1.00;1.00;;;;;;;;;;5078293;28;20539;-76
2023/04/16 14:34:39;;;;;;;0.80;0.77;;;;;;;;;;5085634;28;20513;-76
2023/04/16 14:37:05;;;;;;;0.70;0.70;;;;;;;;;;5069260;28;20475;-75
2023/04/16 14:39:33;;;;;;;0.70;0.70;;;;;;;;;;5082466;28;20475;-76
2023/04/16 14:42:00;;;;;;;0.90;0.90;;;;;;;;;;5081216;28;20485;-76
2023/04/16 14:44:26;;;;;;;0.80;0.80;;;;;;;;;;5084328;28;20977;-76
2023/04/16 14:46:54;;;;;;;0.80;0.73;;;;;;;;;;5085569;28;20805;-75